Time;durP1;ratioP1;P1;durP2;ratioP2;P2;SDS_P1;SDS_P2;PMS_P1;PMS_P2;Temp;Humidity;BMP_temperature;BMP_pressure;BME280_temperature;BME280_humidity;BME280_pressure;Samples;Min_cycle;Max_cycle;Signal;HPM_P1;HPM_P2
2023/01/17 00:01:59;;;;;;;5.68;1.73;;;;;;;2.52;100.00;95738.56;4135979;28;20722;-46
2023/01/17 00:11:05;;;;;;;4.00;2.67;;;;;;;2.39;100.00;95741.75;4135953;28;20293;-45
2023/01/17 00:13:07;;;;;;;6.57;2.17;;;;;;;2.39;100.00;95744.47;4136176;28;20288;-46
2023/01/17 00:15:09;;;;;;;1.85;1.75;;;;;;;2.43;100.00;95742.88;4137990;28;20320;-46
2023/01/17 00:17:11;;;;;;;1.60;1.50;;;;;;;2.37;100.00;95749.31;4136878;28;20304;-46
2023/01/17 00:26:21;;;;;;;3.22;2.35;;;;;;;2.31;100.00;95755.78;4134654;28;20654;-46
2023/01/17 01:34:07;;;;;;;2.08;1.88;;;;;;;2.33;100.00;95795.97;4138889;28;20245;-46
2023/01/17 01:36:08;;;;;;;2.72;2.50;;;;;;;2.31;100.00;95798.94;4140898;28;20344;-47
2023/01/17 01:38:10;;;;;;;2.45;2.25;;;;;;;2.27;100.00;95819.41;4140043;28;20206;-45
2023/01/17 01:40:13;;;;;;;2.55;1.52;;;;;;;2.28;100.00;95804.84;4139954;28;20984;-46
2023/01/17 01:42:15;;;;;;;1.58;1.48;;;;;;;2.30;100.00;95812.69;4138964;28;20312;-46
2023/01/17 01:44:45;;;;;;;1.70;1.60;;;;;;;2.29;100.00;95827.25;4138518;28;20711;-46
2023/01/17 01:46:47;;;;;;;2.15;2.05;;;;;;;2.27;100.00;95834.78;4139562;28;20304;-47
2023/01/17 01:48:50;;;;;;;2.10;2.00;;;;;;;2.16;100.00;95828.56;4135791;28;20206;-46
2023/01/17 01:50:52;;;;;;;5.00;1.95;;;;;;;2.07;100.00;95835.50;4140430;28;20221;-46
2023/01/17 01:52:56;;;;;;;3.35;1.63;;;;;;;2.01;100.00;95835.75;4141040;28;20673;-45
2023/01/17 01:55:02;;;;;;;1.63;1.52;;;;;;;1.99;100.00;95833.31;4142346;28;20236;-46
2023/01/17 01:57:06;;;;;;;2.90;1.83;;;;;;;1.97;100.00;95827.38;4124615;28;20683;-47
2023/01/17 01:59:10;;;;;;;1.85;1.75;;;;;;;2.00;100.00;95832.25;4137872;28;20216;-45
2023/01/17 02:01:12;;;;;;;2.70;2.30;;;;;;;1.97;100.00;95835.47;4148823;28;20739;-46
2023/01/17 02:03:17;;;;;;;2.53;2.22;;;;;;;1.99;100.00;95833.31;4125549;28;20206;-46
2023/01/17 02:05:21;;;;;;;1.63;1.52;;;;;;;1.98;100.00;95837.09;4138848;28;20260;-46
2023/01/17 02:07:28;;;;;;;2.08;1.95;;;;;;;1.95;100.00;95840.28;4135469;28;20653;-45
2023/01/17 02:09:29;;;;;;;2.90;2.70;;;;;;;1.92;100.00;95837.31;4137284;28;20217;-45
2023/01/17 02:11:32;;;;;;;3.80;2.10;;;;;;;1.92;100.00;95840.81;4137711;28;20780;-45
2023/01/17 02:13:34;;;;;;;2.08;1.92;;;;;;;1.95;100.00;95843.00;4153802;28;20248;-45
2023/01/17 02:15:44;;;;;;;2.55;2.35;;;;;;;1.94;100.00;95844.06;4138452;28;20472;-46
2023/01/17 02:17:59;;;;;;;2.50;2.30;;;;;;;1.97;100.00;95843.56;4137074;28;20206;-45
2023/01/17 02:20:19;;;;;;;3.83;3.53;;;;;;;1.87;100.00;95835.41;4138941;28;20291;-46
2023/01/17 02:22:29;;;;;;;2.50;2.33;;;;;;;1.97;100.00;95835.47;4142935;28;20232;-46
2023/01/17 02:24:57;;;;;;;4.53;1.83;;;;;;;1.94;100.00;95837.88;4151187;28;20232;-46
2023/01/17 02:27:23;;;;;;;1.98;1.88;;;;;;;2.02;100.00;95832.78;4136516;28;20247;-47
2023/01/17 02:29:37;;;;;;;4.10;1.83;;;;;;;2.02;100.00;95831.97;4136746;28;20721;-47
2023/01/17 02:31:44;;;;;;;4.20;2.55;;;;;;;2.09;100.00;95825.28;4138305;28;20320;-46
2023/01/17 02:33:54;;;;;;;2.00;1.90;;;;;;;2.16;100.00;95820.47;4139436;28;20217;-46
2023/01/17 02:36:05;;;;;;;2.78;2.58;;;;;;;2.07;100.00;95824.72;4137642;28;22405;-46
2023/01/17 02:38:24;;;;;;;8.32;2.67;;;;;;;2.14;100.00;95835.28;4139212;28;20300;-45
2023/01/17 02:40:40;;;;;;;2.92;2.72;;;;;;;2.13;100.00;95834.47;4139194;28;20212;-45
2023/01/17 02:42:47;;;;;;;7.93;2.28;;;;;;;2.12;100.00;95838.22;4136550;28;20770;-46
2023/01/17 02:44:49;;;;;;;1.92;1.80;;;;;;;2.10;100.00;95826.91;4137895;28;20280;-46
2023/01/17 02:46:54;;;;;;;2.75;2.55;;;;;;;2.17;100.00;95835.56;4139638;28;20205;-46
2023/01/17 02:48:56;;;;;;;3.13;2.17;;;;;;;2.17;100.00;95835.56;4141531;28;20209;-46
2023/01/17 02:51:10;;;;;;;1.92;1.83;;;;;;;2.20;100.00;95836.94;4141140;28;20292;-46
2023/01/17 02:53:26;;;;;;;2.53;2.33;;;;;;;2.25;100.00;95843.16;4153668;28;21066;-45
2023/01/17 02:55:43;;;;;;;2.70;2.50;;;;;;;2.25;100.00;95837.75;4152072;28;20248;-47
2023/01/17 02:57:52;;;;;;;2.88;2.38;;;;;;;2.20;100.00;95840.41;4134823;28;20210;-47
2023/01/17 02:59:57;;;;;;;2.75;2.55;;;;;;;2.22;100.00;95842.88;4137568;28;20205;-45
2023/01/17 03:02:17;;;;;;;2.67;2.47;;;;;;;2.25;100.00;95845.84;4137136;28;20311;-46
2023/01/17 03:04:23;;;;;;;5.93;2.20;;;;;;;2.32;100.00;95842.88;4136534;28;20285;-46
2023/01/17 03:06:31;;;;;;;2.75;2.55;;;;;;;2.30;100.00;95843.16;4136415;28;20216;-46
2023/01/17 03:08:33;;;;;;;2.35;2.17;;;;;;;2.26;100.00;95842.06;4135276;28;20303;-47
2023/01/17 03:10:35;;;;;;;2.50;2.30;;;;;;;2.23;100.00;95839.91;4138521;28;20209;-46
2023/01/17 03:12:37;;;;;;;7.90;2.28;;;;;;;2.24;100.00;95844.22;4137631;28;20260;-46
2023/01/17 03:14:39;;;;;;;2.25;2.05;;;;;;;2.36;100.00;95844.00;4135985;28;20232;-46
2023/01/17 03:16:41;;;;;;;2.63;2.33;;;;;;;2.27;100.00;95835.59;4138729;28;20644;-46
2023/01/17 03:18:42;;;;;;;2.72;2.53;;;;;;;2.29;100.00;95841.56;4138502;28;20213;-47
2023/01/17 03:20:44;;;;;;;2.25;2.03;;;;;;;2.27;100.00;95838.28;4136908;28;20327;-47
2023/01/17 03:22:46;;;;;;;2.60;2.40;;;;;;;2.23;100.00;95839.09;4135098;28;20786;-46
2023/01/17 03:24:47;;;;;;;2.70;2.45;;;;;;;2.17;100.00;95835.56;4136098;28;20659;-46
2023/01/17 03:26:49;;;;;;;2.28;2.08;;;;;;;2.18;100.00;95836.34;4135869;28;20565;-46
2023/01/17 03:28:51;;;;;;;3.40;3.10;;;;;;;2.18;100.00;95836.34;4137945;28;20204;-47
2023/01/17 03:30:52;;;;;;;4.28;3.45;;;;;;;2.27;100.00;95832.91;4121586;28;20252;-46
2023/01/17 03:32:54;;;;;;;4.90;2.72;;;;;;;2.27;100.00;95829.41;4137876;28;20233;-46
2023/01/17 03:34:56;;;;;;;2.65;2.45;;;;;;;2.29;100.00;95838.03;4137812;28;20794;-46
2023/01/17 03:36:57;;;;;;;3.40;2.67;;;;;;;2.23;100.00;95834.50;4137777;28;20210;-45
2023/01/17 03:38:59;;;;;;;2.58;2.13;;;;;;;2.16;100.00;95828.56;4138463;28;20205;-46
2023/01/17 03:41:01;;;;;;;5.05;2.35;;;;;;;2.05;100.00;95826.88;4136880;28;20217;-47
2023/01/17 03:43:02;;;;;;;3.00;2.28;;;;;;;2.07;100.00;95826.63;4150189;28;20229;-45
2023/01/17 03:45:04;;;;;;;4.57;1.92;;;;;;;2.02;100.00;95832.78;4140883;28;20203;-46
2023/01/17 03:47:10;;;;;;;2.00;1.90;;;;;;;2.02;100.00;95827.38;4151508;28;20215;-46
2023/01/17 03:49:12;;;;;;;2.63;1.92;;;;;;;1.85;100.00;95825.94;4138176;28;20214;-46
2023/01/17 03:51:14;;;;;;;3.17;2.53;;;;;;;1.80;100.00;95829.44;4139814;28;20300;-46
2023/01/17 03:53:16;;;;;;;2.95;2.10;;;;;;;1.95;100.00;95832.19;4139568;28;20309;-46
2023/01/17 03:55:18;;;;;;;4.35;2.13;;;;;;;1.95;100.00;95832.19;4136516;28;20257;-47
2023/01/17 03:57:19;;;;;;;3.55;1.65;;;;;;;2.01;100.00;95823.06;4139233;28;20606;-46
2023/01/17 03:59:21;;;;;;;2.33;1.77;;;;;;;1.93;100.00;95823.56;4136266;28;20237;-46
2023/01/17 04:01:23;;;;;;;2.42;2.10;;;;;;;1.90;100.00;95829.50;4138424;28;20233;-45
2023/01/17 04:03:25;;;;;;;2.45;2.25;;;;;;;1.77;100.00;95829.16;4140699;28;20221;-46
2023/01/17 04:05:27;;;;;;;3.00;2.20;;;;;;;1.89;100.00;95835.94;4138613;28;20209;-46
2023/01/17 04:07:29;;;;;;;1.70;1.60;;;;;;;1.69;100.00;95833.13;4138962;28;20252;-46
2023/01/17 04:09:32;;;;;;;4.35;2.25;;;;;;;1.65;100.00;95832.06;4142921;28;20604;-46
2023/01/17 04:11:34;;;;;;;3.08;2.80;;;;;;;1.65;100.00;95829.34;4137335;28;20244;-46
2023/01/17 04:13:36;;;;;;;5.63;2.30;;;;;;;1.75;100.00;95826.69;4135324;28;20219;-47
2023/01/17 04:15:37;;;;;;;1.85;1.75;;;;;;;1.68;100.00;95826.13;4137982;28;20228;-45
2023/01/17 04:17:39;;;;;;;2.40;2.20;;;;;;;1.73;100.00;95819.97;4137895;28;20224;-47
2023/01/17 04:19:41;;;;;;;2.67;2.47;;;;;;;1.68;100.00;95822.63;4121469;28;20292;-46
2023/01/17 04:21:43;;;;;;;2.58;2.15;;;;;;;1.69;100.00;95830.44;4135143;28;20229;-47
2023/01/17 04:23:44;;;;;;;3.00;2.47;;;;;;;1.77;100.00;95834.53;4136049;28;20676;-46
2023/01/17 04:25:46;;;;;;;2.60;2.40;;;;;;;1.74;100.00;95830.47;4139491;28;20878;-46
2023/01/17 04:27:47;;;;;;;2.70;2.50;;;;;;;1.71;100.00;95825.63;4136079;28;20216;-45
2023/01/17 04:29:49;;;;;;;2.03;1.92;;;;;;;1.83;100.00;95823.53;4136444;28;20300;-45
2023/01/17 04:31:51;;;;;;;2.08;1.90;;;;;;;1.77;100.00;95838.06;4135059;28;20577;-45
2023/01/17 04:33:53;;;;;;;2.33;2.13;;;;;;;1.89;100.00;95832.44;4121703;28;20220;-45
2023/01/17 04:35:55;;;;;;;4.68;3.03;;;;;;;1.79;100.00;95833.22;4149688;28;20279;-46
2023/01/17 04:37:56;;;;;;;2.47;2.30;;;;;;;1.76;100.00;95839.13;4139321;28;20327;-45
2023/01/17 04:39:58;;;;;;;1.73;1.63;;;;;;;1.73;100.00;95850.41;4139285;28;20228;-46
2023/01/17 04:42:00;;;;;;;6.07;1.88;;;;;;;1.72;100.00;95848.78;4135186;28;20233;-45
2023/01/17 04:44:01;;;;;;;1.73;1.60;;;;;;;1.73;100.00;95844.22;4137504;28;20707;-45
2023/01/17 04:46:08;;;;;;;1.92;1.83;;;;;;;1.78;100.00;95853.16;4131788;28;20230;-47
2023/01/17 04:48:11;;;;;;;2.33;1.90;;;;;;;1.71;100.00;95852.56;4119636;28;20206;-46
2023/01/17 04:50:13;;;;;;;2.38;2.17;;;;;;;1.71;100.00;95852.56;4139013;28;20634;-47
2023/01/17 04:52:17;;;;;;;3.28;2.97;;;;;;;1.80;100.00;95844.81;4135573;28;20267;-46
2023/01/17 04:54:19;;;;;;;2.00;1.90;;;;;;;1.74;100.00;95852.03;4121004;28;20757;-45
2023/01/17 04:56:20;;;;;;;2.67;2.47;;;;;;;1.79;100.00;95844.00;4136909;28;20233;-47
2023/01/17 04:58:23;;;;;;;2.08;1.98;;;;;;;1.71;100.00;95844.47;4152418;28;20671;-45
2023/01/17 05:00:24;;;;;;;2.40;2.20;;;;;;;1.81;100.00;95841.84;4136735;28;21140;-46
2023/01/17 05:02:26;;;;;;;3.13;2.08;;;;;;;1.81;100.00;95847.22;4137229;28;20225;-46
2023/01/17 05:04:28;;;;;;;3.53;2.22;;;;;;;1.89;100.00;95845.94;4132823;28;20717;-46
2023/01/17 05:06:29;;;;;;;1.60;1.50;;;;;;;1.86;100.00;95844.56;4136525;28;20301;-45
2023/01/17 05:08:31;;;;;;;1.42;1.33;;;;;;;1.84;100.00;95849.41;4134501;28;20248;-46
2023/01/17 05:10:33;;;;;;;6.82;2.08;;;;;;;1.78;100.00;95847.75;4134914;28;20243;-46
2023/01/17 05:12:35;;;;;;;2.38;2.22;;;;;;;1.69;100.00;95843.91;4138962;28;20264;-45
2023/01/17 05:14:36;;;;;;;2.35;2.05;;;;;;;1.75;100.00;95844.78;4137984;28;20304;-45
2023/01/17 05:16:38;;;;;;;2.55;2.35;;;;;;;1.76;100.00;95839.13;4135999;28;20249;-45
2023/01/17 05:18:40;;;;;;;2.65;2.45;;;;;;;1.80;100.00;95836.72;4136243;28;20209;-45
2023/01/17 05:20:42;;;;;;;2.72;2.33;;;;;;;1.75;100.00;95834.00;4148686;28;20240;-46
2023/01/17 05:22:43;;;;;;;6.75;2.65;;;;;;;1.80;100.00;95840.22;4138007;28;20622;-46
2023/01/17 05:24:46;;;;;;;2.72;2.53;;;;;;;1.86;100.00;95839.16;4148570;28;20308;-47
2023/01/17 05:26:53;;;;;;;2.75;2.55;;;;;;;1.77;100.00;95838.06;4151647;28;20262;-46
2023/01/17 05:28:55;;;;;;;2.63;2.33;;;;;;;1.69;100.00;95838.53;4135606;28;20233;-46
2023/01/17 05:30:57;;;;;;;2.92;2.75;;;;;;;1.73;100.00;95844.22;4136463;28;20241;-47
2023/01/17 05:32:58;;;;;;;2.83;2.63;;;;;;;1.76;100.00;95838.31;4135820;28;20247;-47
2023/01/17 05:35:01;;;;;;;2.63;2.40;;;;;;;1.68;100.00;95834.22;4151601;28;20311;-48
2023/01/17 05:37:03;;;;;;;2.03;1.83;;;;;;;1.83;100.00;95842.41;4135967;28;20202;-47
2023/01/17 05:39:04;;;;;;;2.53;2.25;;;;;;;1.71;100.00;95839.09;4130117;28;20205;-46
2023/01/17 05:41:06;;;;;;;5.03;2.47;;;;;;;1.76;100.00;95843.69;4152749;28;20251;-46
2023/01/17 05:43:08;;;;;;;2.13;2.03;;;;;;;1.59;100.00;95843.88;4137758;28;20325;-47
2023/01/17 05:45:11;;;;;;;2.90;2.70;;;;;;;1.61;100.00;95844.41;4138262;28;20242;-47
2023/01/17 05:47:13;;;;;;;3.30;3.05;;;;;;;1.67;100.00;95846.06;4140108;28;20213;-46
2023/01/17 05:49:14;;;;;;;2.83;2.63;;;;;;;1.76;100.00;95851.78;4140902;28;20243;-45
2023/01/17 05:51:16;;;;;;;7.53;2.40;;;;;;;1.73;100.00;95850.41;4140498;28;20209;-46
2023/01/17 05:53:18;;;;;;;4.43;4.00;;;;;;;1.70;100.00;95850.13;4137010;28;20307;-46
2023/01/17 05:55:20;;;;;;;2.33;1.88;;;;;;;1.71;100.00;95840.97;4134932;28;20320;-46
2023/01/17 05:57:22;;;;;;;2.55;2.35;;;;;;;1.81;100.00;95849.91;4136534;28;20218;-46
2023/01/17 05:59:24;;;;;;;2.85;2.65;;;;;;;1.81;100.00;95844.53;4131519;28;20660;-45
2023/01/17 06:01:38;;;;;;;2.88;2.67;;;;;;;1.81;100.00;95846.44;4123082;28;20352;-47
2023/01/17 06:03:39;;;;;;;4.53;2.22;;;;;;;1.83;100.00;95845.09;4138726;28;20261;-45
2023/01/17 06:05:42;;;;;;;2.78;1.98;;;;;;;1.84;100.00;95840.50;4152924;28;20201;-46
2023/01/17 06:07:44;;;;;;;2.40;2.17;;;;;;;1.90;100.00;95842.16;4137915;28;22787;-45
2023/01/17 06:09:46;;;;;;;2.17;1.98;;;;;;;1.88;100.00;95842.41;4135513;28;20330;-46
2023/01/17 06:11:48;;;;;;;5.00;2.22;;;;;;;1.89;100.00;95844.03;4137411;28;20276;-45
2023/01/17 06:13:50;;;;;;;2.47;2.28;;;;;;;1.82;100.00;95848.84;4150873;28;20233;-46
2023/01/17 06:15:52;;;;;;;3.83;2.70;;;;;;;1.71;100.00;95836.41;4136078;28;20313;-46
2023/01/17 06:17:54;;;;;;;5.65;2.53;;;;;;;1.60;100.00;95831.22;4137071;28;20217;-45
2023/01/17 06:19:55;;;;;;;3.60;2.60;;;;;;;1.62;100.00;95837.94;4145521;28;20330;-45
2023/01/17 06:21:57;;;;;;;2.33;2.22;;;;;;;1.63;100.00;95834.19;4135536;28;20339;-46
2023/01/17 06:23:59;;;;;;;4.30;2.88;;;;;;;1.68;100.00;95836.09;4136639;28;20770;-45
2023/01/17 06:26:04;;;;;;;3.38;3.08;;;;;;;1.83;100.00;95839.72;4138169;28;20208;-45
2023/01/17 06:28:06;;;;;;;2.72;2.53;;;;;;;1.85;100.00;95836.72;4137310;28;20300;-45
2023/01/17 06:30:08;;;;;;;2.28;2.08;;;;;;;1.81;100.00;95841.84;4135276;28;20710;-47
2023/01/17 06:32:12;;;;;;;2.33;2.22;;;;;;;1.71;100.00;95852.56;4124575;28;20229;-45
2023/01/17 06:34:13;;;;;;;4.30;3.38;;;;;;;1.76;100.00;95855.31;4135119;28;20309;-47
2023/01/17 06:36:15;;;;;;;2.67;2.15;;;;;;;1.84;100.00;95854.81;4137751;28;20336;-47
2023/01/17 06:38:17;;;;;;;3.17;2.85;;;;;;;1.69;100.00;95851.19;4139161;28;20224;-45
2023/01/17 06:40:19;;;;;;;3.25;2.95;;;;;;;1.71;100.00;95852.56;4137792;28;20213;-46
2023/01/17 06:42:20;;;;;;;3.63;3.38;;;;;;;1.75;100.00;95853.66;4138590;28;20312;-45
2023/01/17 06:44:22;;;;;;;5.07;3.47;;;;;;;1.74;100.00;95854.72;4136923;28;20241;-45
2023/01/17 06:46:24;;;;;;;3.42;3.17;;;;;;;1.78;100.00;95852.31;4136055;28;20206;-46
2023/01/17 06:48:26;;;;;;;5.22;2.72;;;;;;;1.63;100.00;95850.38;4149401;28;20237;-45
2023/01/17 06:50:29;;;;;;;3.95;3.22;;;;;;;1.67;100.00;95843.38;4134964;28;20318;-45
2023/01/17 06:52:30;;;;;;;4.05;3.67;;;;;;;1.70;100.00;95850.13;4140769;28;20240;-46
2023/01/17 06:54:32;;;;;;;5.45;2.92;;;;;;;1.76;100.00;95844.53;4138335;28;20209;-46
2023/01/17 06:56:34;;;;;;;5.82;3.92;;;;;;;1.63;100.00;95850.38;4137515;28;20225;-47
2023/01/17 06:58:35;;;;;;;2.72;2.53;;;;;;;1.64;100.00;95846.59;4136283;28;20209;-46
2023/01/17 07:00:37;;;;;;;2.70;2.50;;;;;;;1.50;100.00;95845.44;4149023;28;20223;-46
2023/01/17 07:02:41;;;;;;;3.42;3.13;;;;;;;1.45;100.00;95837.31;4135027;28;21059;-46
2023/01/17 07:04:43;;;;;;;7.93;3.40;;;;;;;1.52;100.00;95837.88;4139576;28;20320;-46
2023/01/17 07:06:44;;;;;;;4.68;3.80;;;;;;;1.48;100.00;95842.16;4137567;28;20523;-47
2023/01/17 07:08:47;;;;;;;2.50;2.30;;;;;;;1.55;100.00;95831.97;4138709;28;20241;-47
2023/01/17 07:10:49;;;;;;;4.22;3.83;;;;;;;1.68;100.00;95836.91;4139339;28;20205;-47
2023/01/17 07:12:57;;;;;;;3.50;3.20;;;;;;;1.58;100.00;95831.47;4133974;28;20714;-46
2023/01/17 07:14:59;;;;;;;2.70;2.33;;;;;;;1.52;100.00;95839.75;4133530;28;20296;-46
2023/01/17 07:17:01;;;;;;;8.30;2.65;;;;;;;1.61;100.00;95839.00;4136360;28;20738;-46
2023/01/17 07:19:02;;;;;;;2.83;2.63;;;;;;;1.59;100.00;95838.47;4136465;28;20210;-46
2023/01/17 07:21:04;;;;;;;2.40;2.20;;;;;;;1.51;100.00;95830.88;4134522;28;20218;-46
2023/01/17 07:23:06;;;;;;;3.15;2.33;;;;;;;1.42;100.00;95832.41;4133505;28;20216;-46
2023/01/17 07:25:08;;;;;;;3.17;2.88;;;;;;;1.32;100.00;95829.66;4136554;28;20313;-47
2023/01/17 07:27:10;;;;;;;3.80;2.78;;;;;;;1.44;100.00;95841.06;4134384;28;20241;-47
2023/01/17 07:29:11;;;;;;;3.60;3.30;;;;;;;1.45;100.00;95826.53;4134872;28;20321;-46
2023/01/17 07:31:13;;;;;;;3.20;2.90;;;;;;;1.31;100.00;95828.03;4136788;28;20268;-46
2023/01/17 07:33:16;;;;;;;4.95;4.07;;;;;;;1.30;100.00;95826.44;4135346;28;20225;-45
2023/01/17 07:35:18;;;;;;;3.13;2.92;;;;;;;1.22;100.00;95821.50;4136664;28;20222;-46
2023/01/17 07:37:20;;;;;;;5.80;3.80;;;;;;;1.23;100.00;95831.22;4121914;28;21147;-45
2023/01/17 07:39:22;;;;;;;8.88;3.47;;;;;;;1.27;100.00;95824.22;4138452;28;20260;-47
2023/01/17 07:41:24;;;;;;;3.67;3.35;;;;;;;1.32;100.00;95820.75;4135394;28;20968;-46
2023/01/17 07:43:26;;;;;;;8.75;2.65;;;;;;;1.27;100.00;95818.06;4139077;28;20221;-46
2023/01/17 07:45:28;;;;;;;5.53;3.78;;;;;;;1.30;100.00;95821.03;4142128;28;20830;-45
2023/01/17 07:47:32;;;;;;;3.42;2.90;;;;;;;1.41;100.00;95820.03;4137441;28;20267;-46
2023/01/17 07:49:34;;;;;;;5.30;2.53;;;;;;;1.56;100.00;95814.75;4140400;28;20213;-47
2023/01/17 07:51:35;;;;;;;4.03;3.63;;;;;;;1.46;100.00;95809.28;4136706;28;20232;-46
2023/01/17 07:53:37;;;;;;;4.28;3.83;;;;;;;1.44;100.00;95803.38;4122643;28;20332;-46
2023/01/17 07:55:39;;;;;;;3.40;3.20;;;;;;;1.53;100.00;95811.78;4138270;28;20681;-46
2023/01/17 07:57:41;;;;;;;3.97;3.30;;;;;;;1.53;100.00;95812.56;4141856;28;20205;-45
2023/01/17 07:59:43;;;;;;;4.35;3.95;;;;;;;1.52;100.00;95813.66;4139509;28;20284;-46
2023/01/17 08:01:45;;;;;;;4.00;2.45;;;;;;;1.54;100.00;95808.78;4121337;28;20236;-46
2023/01/17 08:03:49;;;;;;;2.85;2.65;;;;;;;1.62;100.00;95811.00;4136494;28;20247;-45
2023/01/17 08:05:57;;;;;;;6.78;3.72;;;;;;;1.60;100.00;95801.56;4151345;28;20209;-46
2023/01/17 08:08:02;;;;;;;3.00;2.65;;;;;;;1.59;100.00;95805.31;4148707;28;20320;-46
2023/01/17 08:10:06;;;;;;;8.70;2.35;;;;;;;1.59;100.00;95810.72;4135894;28;20209;-46
2023/01/17 08:12:08;;;;;;;3.55;3.10;;;;;;;1.57;100.00;95802.91;4138258;28;20292;-45
2023/01/17 08:14:09;;;;;;;2.72;2.53;;;;;;;1.69;100.00;95808.88;4137783;28;20213;-46
2023/01/17 08:16:12;;;;;;;6.07;3.50;;;;;;;1.49;100.00;95806.06;4135646;28;20320;-45
2023/01/17 08:18:15;;;;;;;3.95;3.65;;;;;;;1.50;100.00;95802.31;4134481;28;20240;-46
2023/01/17 08:20:18;;;;;;;4.93;4.45;;;;;;;1.55;100.00;95799.63;4144547;28;20216;-46
2023/01/17 08:22:23;;;;;;;4.65;3.10;;;;;;;1.66;100.00;95792.44;4138042;28;20253;-46
2023/01/17 08:24:25;;;;;;;6.03;3.75;;;;;;;2.21;100.00;95787.31;4134787;28;20643;-46
2023/01/17 08:26:27;;;;;;;4.70;4.30;;;;;;;3.19;100.00;95793.13;4137516;28;20292;-47
2023/01/17 08:28:28;;;;;;;9.55;4.50;;;;;;;3.87;100.00;95797.09;4152038;28;20294;-46
2023/01/17 08:30:30;;;;;;;3.83;3.40;;;;;;;4.46;100.00;95790.63;4134972;28;20213;-47
2023/01/17 08:32:33;;;;;;;4.63;4.18;;;;;;;4.75;100.00;95796.97;4134863;28;20229;-47
2023/01/17 08:34:35;;;;;;;5.68;3.13;;;;;;;4.66;100.00;95793.22;4136286;28;20328;-47
2023/01/17 08:36:37;;;;;;;2.78;2.55;;;;;;;4.64;100.00;95800.81;4135116;28;20317;-46
2023/01/17 08:38:38;;;;;;;3.55;3.25;;;;;;;5.09;100.00;95795.91;4124558;28;20270;-46
2023/01/17 08:40:40;;;;;;;3.20;2.85;;;;;;;5.65;100.00;95791.66;4137392;28;20205;-47
2023/01/17 08:42:43;;;;;;;3.67;2.90;;;;;;;5.66;100.00;95796.00;4135520;28;20233;-48
2023/01/17 08:44:45;;;;;;;9.55;2.58;;;;;;;5.28;100.00;95790.63;4135946;28;20295;-47
2023/01/17 08:46:47;;;;;;;2.95;2.42;;;;;;;4.89;100.00;95797.97;4136219;28;20206;-47
2023/01/17 08:48:57;;;;;;;3.63;3.33;;;;;;;4.64;100.00;95791.88;4132774;28;20209;-48
2023/01/17 08:51:02;;;;;;;2.83;2.28;;;;;;;4.09;100.00;95790.25;4138403;28;20301;-47
2023/01/17 08:53:04;;;;;;;3.30;3.00;;;;;;;3.79;100.00;95790.34;4137031;28;20212;-47
2023/01/17 08:55:08;;;;;;;4.05;3.15;;;;;;;3.83;100.00;95802.25;4136029;28;20248;-47
2023/01/17 08:57:10;;;;;;;14.60;13.20;;;;;;;3.75;100.00;95799.28;4124259;28;21855;-48
2023/01/17 08:59:12;;;;;;;6.50;5.97;;;;;;;3.52;100.00;95795.25;4139820;28;20206;-47
2023/01/17 09:01:14;;;;;;;7.35;5.95;;;;;;;3.51;100.00;95804.47;4139073;28;20354;-47
2023/01/17 09:03:16;;;;;;;5.18;4.72;;;;;;;3.42;100.00;95795.28;4136405;28;20225;-47
2023/01/17 09:05:18;;;;;;;4.05;3.75;;;;;;;3.34;100.00;95797.72;4137913;28;20214;-48
2023/01/17 09:07:20;;;;;;;4.30;3.03;;;;;;;3.32;100.00;95799.88;4136030;28;20263;-47
2023/01/17 09:09:22;;;;;;;2.90;2.58;;;;;;;3.30;100.00;95797.44;4139078;28;20769;-46
2023/01/17 09:11:24;;;;;;;3.00;2.75;;;;;;;3.09;100.00;95795.84;4136049;28;20229;-47
2023/01/17 09:13:26;;;;;;;3.15;2.83;;;;;;;3.07;100.00;95792.56;4137144;28;20239;-46
2023/01/17 09:15:28;;;;;;;3.67;3.28;;;;;;;3.10;100.00;95794.75;4141628;28;20213;-47
2023/01/17 09:17:29;;;;;;;5.03;3.58;;;;;;;3.12;100.00;95800.69;4125513;28;20234;-47
2023/01/17 09:19:31;;;;;;;3.42;3.13;;;;;;;3.19;100.00;95801.22;4125278;28;20210;-46
2023/01/17 09:21:33;;;;;;;5.95;3.97;;;;;;;3.21;100.00;95804.47;4144157;28;20290;-46
2023/01/17 09:23:35;;;;;;;6.68;3.67;;;;;;;3.21;100.00;95806.38;4153514;28;20291;-46
2023/01/17 09:25:38;;;;;;;4.20;3.55;;;;;;;3.24;100.00;95803.94;4146174;28;20212;-46
2023/01/17 09:27:44;;;;;;;5.43;3.65;;;;;;;3.15;100.00;95810.16;4145574;28;20209;-46
2023/01/17 09:29:46;;;;;;;3.85;3.55;;;;;;;3.02;100.00;95800.66;4128622;28;20252;-47
2023/01/17 09:31:48;;;;;;;3.67;3.38;;;;;;;2.86;100.00;95811.75;4142340;28;20316;-46
2023/01/17 09:33:50;;;;;;;6.55;5.93;;;;;;;2.77;100.00;95803.38;4155234;28;20216;-47
2023/01/17 09:35:52;;;;;;;10.35;7.40;;;;;;;2.90;100.00;95819.03;4142887;28;20205;-46
2023/01/17 09:37:54;;;;;;;6.20;5.60;;;;;;;2.83;100.00;95823.91;4154869;28;20216;-46
2023/01/17 09:39:57;;;;;;;7.35;5.88;;;;;;;2.93;100.00;95823.91;4139669;28;20706;-46
2023/01/17 09:42:19;;;;;;;5.25;4.82;;;;;;;2.67;100.00;95814.13;4136321;28;20371;-46
2023/01/17 09:44:40;;;;;;;6.80;4.07;;;;;;;2.67;100.00;95814.13;4140599;28;20228;-46
2023/01/17 09:46:45;;;;;;;3.88;3.42;;;;;;;2.73;100.00;95814.97;4141297;28;20209;-46
2023/01/17 09:48:49;;;;;;;5.03;4.63;;;;;;;2.80;100.00;95808.22;4137425;28;20214;-46
2023/01/17 09:51:02;;;;;;;3.92;3.53;;;;;;;2.73;100.00;95813.06;4136635;28;20263;-46
2023/01/17 09:53:15;;;;;;;3.55;3.25;;;;;;;2.88;100.00;95815.78;4139417;28;20308;-45
2023/01/17 09:55:18;;;;;;;2.70;2.47;;;;;;;2.82;100.00;95816.84;4138474;28;20213;-47
2023/01/17 09:57:45;;;;;;;3.22;2.92;;;;;;;2.68;100.00;95815.75;4139515;28;20238;-47
2023/01/17 10:00:11;;;;;;;8.68;2.92;;;;;;;2.70;100.00;95813.63;4135952;28;20209;-46
2023/01/17 10:02:24;;;;;;;3.28;2.92;;;;;;;2.81;100.00;95809.84;4135930;28;20243;-46
2023/01/17 10:04:27;;;;;;;3.75;3.40;;;;;;;2.99;100.00;95811.19;4136637;28;20213;-46
2023/01/17 10:07:03;;;;;;;3.50;3.08;;;;;;;3.08;100.00;95813.09;4136469;28;20292;-46
2023/01/17 10:09:33;;;;;;;4.55;3.80;;;;;;;3.18;100.00;95812.28;4135754;28;20215;-47
2023/01/17 10:11:54;;;;;;;2.92;2.60;;;;;;;3.45;100.00;95802.00;4137175;28;20284;-46
2023/01/17 10:14:29;;;;;;;2.63;2.28;;;;;;;3.68;100.00;95810.34;4134889;28;20217;-46
2023/01/17 10:16:56;;;;;;;3.33;2.85;;;;;;;3.65;100.00;95805.50;4138140;28;20237;-46
2023/01/17 10:18:59;;;;;;;2.55;2.38;;;;;;;3.61;100.00;95804.44;4136284;28;20713;-46
2023/01/17 10:21:26;;;;;;;3.50;3.17;;;;;;;3.38;100.00;95804.19;4155457;28;20878;-46
2023/01/17 10:23:52;;;;;;;2.47;2.30;;;;;;;3.55;100.00;95794.69;4135763;28;21141;-46
2023/01/17 10:25:57;;;;;;;3.10;1.85;;;;;;;3.78;100.00;95798.72;4136718;28;20260;-47
2023/01/17 10:28:05;;;;;;;3.58;3.28;;;;;;;3.77;100.00;95787.13;4137096;28;20711;-47
2023/01/17 10:30:43;;;;;;;3.17;2.78;;;;;;;3.75;100.00;95793.88;4133786;28;20210;-46
2023/01/17 10:32:49;;;;;;;1.70;1.60;;;;;;;3.90;100.00;95783.84;4136257;28;20230;-46
2023/01/17 10:34:52;;;;;;;3.78;2.40;;;;;;;3.74;100.00;95782.22;4138195;28;20221;-45
2023/01/17 10:37:02;;;;;;;4.97;3.85;;;;;;;3.81;100.00;95781.97;4139037;28;20239;-47
2023/01/17 10:39:39;;;;;;;5.72;5.13;;;;;;;4.08;100.00;95782.41;4139861;28;20205;-45
2023/01/17 10:41:57;;;;;;;3.97;3.67;;;;;;;4.05;100.00;95778.38;4126679;28;20225;-46
2023/01/17 10:44:05;;;;;;;3.55;2.70;;;;;;;3.79;100.00;95784.09;4137988;28;20240;-45
2023/01/17 10:46:14;;;;;;;2.90;2.70;;;;;;;3.64;100.00;95770.63;4136461;28;20690;-45
2023/01/17 10:48:33;;;;;;;3.25;2.95;;;;;;;3.54;100.00;95768.75;4151755;28;20216;-46
2023/01/17 10:51:12;;;;;;;4.03;3.63;;;;;;;3.74;100.00;95766.00;4137179;28;20584;-47
2023/01/17 10:53:47;;;;;;;2.42;2.22;;;;;;;3.90;100.00;95759.50;4124085;28;20250;-45
2023/01/17 10:55:54;;;;;;;2.30;2.10;;;;;;;4.16;100.00;95750.19;4137297;28;20210;-46
2023/01/17 10:57:57;;;;;;;3.38;2.10;;;;;;;4.40;100.00;95756.56;4153725;28;20285;-45
2023/01/17 11:00:00;;;;;;;2.47;2.28;;;;;;;4.56;100.00;95752.69;4150081;28;20219;-46
2023/01/17 11:02:09;;;;;;;1.85;1.75;;;;;;;4.50;98.91;95756.50;4140239;28;20437;-45
2023/01/17 11:04:39;;;;;;;2.13;1.75;;;;;;;4.32;99.28;95757.13;4151613;28;20647;-45
2023/01/17 11:06:41;;;;;;;2.75;2.05;;;;;;;4.72;99.39;95745.25;4139533;28;20223;-47
2023/01/17 11:09:00;;;;;;;2.22;1.67;;;;;;;4.83;97.45;95742.22;4122002;28;20713;-47
2023/01/17 11:11:03;;;;;;;2.55;1.60;;;;;;;4.70;96.35;95750.97;4136479;28;20225;-46